Aviation Digital Data Service (ADDS)

Output produced by METARs form (0718 UTC 24 January 2019)
found at http://aviationweather.gov/metar/data/
 
KIAH 240653Z 23004KT 10SM CLR 02/M01 A3014 RMK AO2 SLP207 T00171006
KIAH 240526Z 2406/2512 34003KT P6SM SKC 
     FM241600 15006KT P6SM SCT250 
     FM250100 11003KT P6SM FEW250